Time;durP1;ratioP1;P1;durP2;ratioP2;P2;SDS_P1;SDS_P2;PMS_P1;PMS_P2;Temp;Humidity;BMP_temperature;BMP_pressure;BME280_temperature;BME280_humidity;BME280_pressure;Samples;Min_cycle;Max_cycle;Signal;HPM_P1;HPM_P2
2022/05/29 00:02:57;;;;;;;5.13;1.50;;;;;;;7.40;100.00;98175.63;15277877;19;20018;-60
2022/05/29 00:08:02;;;;;;;6.53;3.33;;;;;;;7.33;100.00;98171.84;15283032;19;20498;-60
2022/05/29 00:13:13;;;;;;;6.93;3.63;;;;;;;7.27;100.00;98167.91;15280936;19;20394;-60
2022/05/29 00:18:19;;;;;;;9.50;4.53;;;;;;;7.19;100.00;98165.13;15284880;19;20006;-59
2022/05/29 00:23:28;;;;;;;5.53;2.70;;;;;;;7.08;100.00;98168.81;15278941;19;20010;-60
2022/05/29 00:28:35;;;;;;;4.80;1.73;;;;;;;7.00;100.00;98174.88;15283581;19;20034;-60
2022/05/29 00:33:41;;;;;;;6.55;1.70;;;;;;;6.92;100.00;98172.09;15273439;19;20031;-60
2022/05/29 00:38:48;;;;;;;5.25;1.50;;;;;;;6.84;100.00;98166.63;15281217;19;20031;-59
2022/05/29 00:44:13;;;;;;;5.88;1.55;;;;;;;6.75;100.00;98157.59;15276785;19;20019;-58
2022/05/29 00:49:23;;;;;;;5.50;1.58;;;;;;;6.70;100.00;98154.53;15281378;19;20034;-57
2022/05/29 00:54:31;;;;;;;5.05;1.67;;;;;;;6.61;100.00;98150.88;15275807;19;20362;-61
2022/05/29 00:59:39;;;;;;;5.88;1.45;;;;;;;6.59;100.00;98142.13;15280587;19;20015;-58
2022/05/29 01:04:45;;;;;;;4.88;1.48;;;;;;;6.52;100.00;98143.72;15277370;19;20052;-57
2022/05/29 01:09:52;;;;;;;3.95;1.50;;;;;;;6.47;100.00;98136.94;15279165;19;20364;-59
2022/05/29 01:15:09;;;;;;;4.35;1.33;;;;;;;6.34;100.00;98138.22;15274973;19;20378;-60
2022/05/29 01:20:45;;;;;;;5.13;1.60;;;;;;;6.34;100.00;98125.69;15276704;19;20792;-59
2022/05/29 01:26:24;;;;;;;5.47;1.60;;;;;;;6.32;100.00;98125.81;15274420;19;20011;-59
2022/05/29 01:31:44;;;;;;;4.78;1.48;;;;;;;6.30;100.00;98127.78;15278955;19;20019;-62
2022/05/29 01:36:56;;;;;;;4.60;1.50;;;;;;;6.25;100.00;98130.03;15277705;19;20014;-61
2022/05/29 01:42:11;;;;;;;5.68;1.50;;;;;;;6.17;100.00;98130.72;15272695;19;20114;-58
2022/05/29 01:47:23;;;;;;;3.63;1.33;;;;;;;6.09;100.00;98133.28;15277700;19;20015;-59
2022/05/29 01:52:34;;;;;;;2.92;1.30;;;;;;;6.06;100.00;98124.69;15275721;19;20112;-60
2022/05/29 01:57:44;;;;;;;3.33;1.25;;;;;;;5.99;100.00;98119.91;15278517;19;20018;-55
2022/05/29 02:02:57;;;;;;;4.07;1.40;;;;;;;5.90;100.00;98123.38;15274900;19;20041;-60
2022/05/29 02:08:06;;;;;;;3.42;1.30;;;;;;;5.83;100.00;98115.06;15274668;19;20990;-56
2022/05/29 02:13:23;;;;;;;3.50;1.23;;;;;;;5.75;100.00;98112.25;15270752;19;20022;-61
2022/05/29 02:18:38;;;;;;;7.15;1.48;;;;;;;5.66;100.00;98113.06;15275220;19;20018;-58
2022/05/29 02:23:47;;;;;;;4.35;1.52;;;;;;;5.59;100.00;98117.25;15271173;19;20018;-60
2022/05/29 02:28:58;;;;;;;3.00;1.20;;;;;;;5.51;100.00;98110.78;15274858;19;20018;-60
2022/05/29 02:34:15;;;;;;;4.60;1.35;;;;;;;5.47;100.00;98109.34;15271880;19;20010;-60
2022/05/29 02:39:40;;;;;;;5.03;1.33;;;;;;;5.43;100.00;98102.63;15275750;19;20360;-60
2022/05/29 02:44:52;;;;;;;4.65;1.40;;;;;;;5.35;100.00;98110.47;15266144;19;20063;-60
2022/05/29 02:50:13;;;;;;;3.67;1.50;;;;;;;5.29;100.00;98103.00;15271675;19;20018;-60
2022/05/29 02:55:19;;;;;;;5.83;1.47;;;;;;;5.19;100.00;98095.78;15269992;19;20022;-58
2022/05/29 03:00:24;;;;;;;7.45;1.70;;;;;;;5.12;100.00;98088.47;15272407;19;20041;-59
2022/05/29 03:05:40;;;;;;;4.75;1.42;;;;;;;5.05;100.00;98086.34;15270472;19;20634;-85
2022/05/29 03:10:55;;;;;;;4.70;1.55;;;;;;;5.01;100.00;98089.38;15278688;19;20482;-84
2022/05/29 03:16:08;;;;;;;4.82;1.58;;;;;;;4.93;100.00;98088.25;15278189;19;20031;-85
2022/05/29 03:21:25;;;;;;;3.85;1.40;;;;;;;4.90;100.00;98091.16;15280428;19;20025;-84
2022/05/29 03:26:37;;;;;;;4.22;1.50;;;;;;;4.82;100.00;98082.16;15280482;19;20022;-82
2022/05/29 03:31:44;;;;;;;3.67;1.50;;;;;;;4.82;100.00;98084.84;15280501;19;20014;-83
2022/05/29 03:36:53;;;;;;;3.55;1.48;;;;;;;4.78;100.00;98082.41;15282658;19;20066;-82
2022/05/29 03:41:58;;;;;;;3.05;1.40;;;;;;;4.76;100.00;98078.19;15280996;19;20018;-85
2022/05/29 03:47:04;;;;;;;3.90;1.70;;;;;;;4.73;100.00;98084.63;15295294;19;20015;-84
2022/05/29 03:52:11;;;;;;;4.28;1.50;;;;;;;4.72;100.00;98071.44;15294210;19;20011;-85
2022/05/29 03:57:16;;;;;;;5.25;1.90;;;;;;;4.71;100.00;98080.41;15301595;19;20010;-84
2022/05/29 04:02:21;;;;;;;4.22;1.63;;;;;;;4.70;100.00;98081.38;15295882;19;20022;-85
2022/05/29 04:12:46;;;;;;;5.80;1.77;;;;;;;4.74;100.00;98075.66;15314621;19;20054;-82
2022/05/29 04:17:51;;;;;;;4.22;1.60;;;;;;;4.78;100.00;98073.56;15295767;19;20014;-85
2022/05/29 04:22:58;;;;;;;4.75;1.40;;;;;;;4.83;100.00;98073.16;15290275;19;20018;-82
2022/05/29 04:28:03;;;;;;;4.65;1.52;;;;;;;4.86;100.00;98065.75;15294153;19;20027;-82
2022/05/29 04:33:08;;;;;;;5.15;1.67;;;;;;;4.92;100.00;98069.69;14775888;19;10001113;-83
2022/05/29 04:38:16;;;;;;;5.32;1.60;;;;;;;5.00;100.00;98063.69;15287710;19;20002;-84
2022/05/29 04:43:21;;;;;;;5.70;1.70;;;;;;;5.06;100.00;98068.47;15287387;19;20411;-83
2022/05/29 04:48:27;;;;;;;7.10;1.73;;;;;;;5.14;100.00;98059.81;15306753;19;20059;-84
2022/05/29 04:53:36;;;;;;;4.90;1.70;;;;;;;5.22;100.00;98052.81;15285423;19;20045;-83
2022/05/29 04:58:41;;;;;;;6.13;1.85;;;;;;;5.32;100.00;98051.97;15290379;19;20014;-83
2022/05/29 05:03:46;;;;;;;5.78;1.85;;;;;;;5.40;100.00;98049.44;15300256;19;20584;-82
2022/05/29 05:08:53;;;;;;;6.85;1.80;;;;;;;5.50;100.00;98044.13;15289007;19;20026;-83
2022/05/29 05:14:00;;;;;;;6.03;1.60;;;;;;;5.61;100.00;98036.00;15286553;19;20661;-83
2022/05/29 05:19:05;;;;;;;6.53;1.85;;;;;;;5.75;100.00;98036.56;15294895;19;20017;-83
2022/05/29 05:24:13;;;;;;;6.13;1.70;;;;;;;5.89;100.00;98041.47;15292606;19;20014;-84
2022/05/29 05:29:18;;;;;;;4.75;1.67;;;;;;;6.04;100.00;98046.44;15323629;19;20017;-84
2022/05/29 05:40:12;;;;;;;4.32;1.50;;;;;;;6.41;100.00;98038.47;15364720;19;19983;-82
2022/05/29 05:45:18;;;;;;;3.80;1.20;;;;;;;6.60;100.00;98034.91;15347382;19;20013;-80
2022/05/29 05:50:24;;;;;;;5.20;1.48;;;;;;;6.78;100.00;98029.66;15351799;19;20346;-82
2022/05/29 05:55:31;;;;;;;6.93;1.40;;;;;;;6.99;100.00;98031.28;15342252;19;20054;-85
2022/05/29 06:00:36;;;;;;;3.97;1.33;;;;;;;7.23;100.00;98037.91;15344079;19;20033;-80
2022/05/29 06:05:42;;;;;;;5.40;1.50;;;;;;;7.47;100.00;98033.78;15318004;19;20074;-82
2022/05/29 06:10:49;;;;;;;4.35;1.27;;;;;;;7.71;100.00;98033.22;15307645;19;20064;-83
2022/05/29 06:15:54;;;;;;;4.38;1.40;;;;;;;7.90;100.00;98026.88;15262628;19;20010;-85
2022/05/29 06:21:01;;;;;;;5.40;1.60;;;;;;;8.13;100.00;98026.38;15261992;19;20034;-85
2022/05/29 06:26:11;;;;;;;5.05;1.38;;;;;;;8.42;100.00;98028.78;15262750;19;20612;-83
2022/05/29 06:31:16;;;;;;;4.57;1.43;;;;;;;8.59;100.00;98021.72;15270419;19;20518;-83
2022/05/29 06:36:24;;;;;;;4.07;1.20;;;;;;;8.75;100.00;98012.91;15270394;19;20035;-83
2022/05/29 06:41:34;;;;;;;4.68;1.23;;;;;;;8.91;100.00;98006.75;15269151;19;20038;-51
2022/05/29 06:46:40;;;;;;;4.15;1.15;;;;;;;9.16;100.00;98017.59;15274060;19;20025;-56
2022/05/29 06:51:46;;;;;;;5.05;1.40;;;;;;;9.38;100.00;98008.13;15273939;19;20458;-49
2022/05/29 06:56:53;;;;;;;3.63;1.20;;;;;;;9.58;100.00;98007.81;15274089;19;20038;-49
2022/05/29 07:07:19;;;;;;;5.32;1.20;;;;;;;10.03;100.00;98009.19;15273006;19;20035;-50
2022/05/29 07:12:33;;;;;;;4.38;1.23;;;;;;;10.09;100.00;98010.38;15272717;19;20014;-52
2022/05/29 07:17:40;;;;;;;5.15;1.50;;;;;;;10.24;100.00;98001.63;15276758;19;20006;-52
2022/05/29 07:22:45;;;;;;;4.70;1.20;;;;;;;10.32;100.00;98004.31;15286371;19;20013;-49
2022/05/29 07:27:53;;;;;;;3.40;1.10;;;;;;;10.63;100.00;98003.63;15286139;19;20018;-57
2022/05/29 07:32:58;;;;;;;3.53;1.10;;;;;;;10.85;100.00;97993.13;15282068;19;20361;-48
2022/05/29 07:38:03;;;;;;;5.05;1.35;;;;;;;11.09;100.00;97995.72;15284610;19;20014;-48
2022/05/29 07:43:23;;;;;;;3.80;1.00;;;;;;;11.33;100.00;98002.03;15285316;19;20014;-48
2022/05/29 07:48:31;;;;;;;3.58;1.10;;;;;;;11.41;100.00;97998.41;15283078;19;20011;-54
2022/05/29 07:53:36;;;;;;;3.67;1.10;;;;;;;11.58;100.00;97999.19;15284127;19;20018;-55
2022/05/29 07:58:45;;;;;;;2.85;0.93;;;;;;;11.67;100.00;98000.81;15283676;19;20011;-49
2022/05/29 08:03:51;;;;;;;4.22;1.20;;;;;;;11.54;100.00;98000.56;15280799;19;20753;-57
2022/05/29 08:08:56;;;;;;;2.60;1.00;;;;;;;11.30;100.00;98001.50;15278511;19;20039;-50
2022/05/29 08:14:04;;;;;;;3.63;0.90;;;;;;;11.34;100.00;97998.31;15284266;19;20384;-56
2022/05/29 08:19:09;;;;;;;2.45;0.85;;;;;;;11.82;100.00;97994.63;15275256;19;20286;-53
2022/05/29 08:35:14;;;;;;;2.20;0.75;;;;;;;11.64;100.00;97998.47;15279122;19;20333;-52
2022/05/29 08:40:19;;;;;;;4.63;0.85;;;;;;;11.70;100.00;97999.59;15277666;19;20006;-49
2022/05/29 08:45:32;;;;;;;2.65;0.60;;;;;;;11.82;100.00;97989.22;15279845;19;20023;-51
2022/05/29 08:50:44;;;;;;;1.90;0.60;;;;;;;11.96;100.00;97988.44;15285293;19;20002;-54
2022/05/29 08:55:53;;;;;;;1.77;0.60;;;;;;;12.07;100.00;97991.75;15282076;19;20010;-51
2022/05/29 09:01:11;;;;;;;2.33;0.70;;;;;;;12.17;100.00;97981.56;15281627;19;20035;-54
2022/05/29 09:06:21;;;;;;;2.85;0.88;;;;;;;12.06;100.00;97992.78;15270906;19;20007;-57
2022/05/29 09:11:30;;;;;;;2.08;0.70;;;;;;;12.09;100.00;97985.19;15270014;19;20018;-54
2022/05/29 09:16:45;;;;;;;2.22;0.80;;;;;;;12.13;100.00;97986.47;15289682;19;20368;-56
2022/05/29 09:21:55;;;;;;;2.42;0.70;;;;;;;11.95;100.00;97978.66;15287339;19;20042;-56
2022/05/29 09:27:00;;;;;;;2.20;0.70;;;;;;;12.09;100.00;97974.38;15290580;19;20014;-59
2022/05/29 09:32:15;;;;;;;1.45;0.57;;;;;;;12.32;100.00;97982.41;15289520;19;20010;-53
2022/05/29 09:37:29;;;;;;;1.42;0.57;;;;;;;12.20;100.00;97974.97;15280868;19;20096;-54
2022/05/29 09:42:40;;;;;;;0.80;0.40;;;;;;;12.32;100.00;97965.41;15283283;19;20081;-59
2022/05/29 09:53:12;;;;;;;1.52;0.60;;;;;;;12.22;100.00;97962.94;15284979;19;19915;-55
2022/05/29 09:58:24;;;;;;;2.28;0.60;;;;;;;12.33;100.00;97965.19;15285017;19;20121;-55
2022/05/29 10:03:57;;;;;;;0.93;0.50;;;;;;;12.72;100.00;97949.75;15279877;19;20015;-58
2022/05/29 10:09:21;;;;;;;1.25;0.50;;;;;;;12.44;100.00;97946.84;15280636;19;20022;-59
2022/05/29 10:14:38;;;;;;;0.98;0.60;;;;;;;12.49;100.00;97947.16;15281854;19;20018;-54
2022/05/29 10:19:48;;;;;;;1.35;0.50;;;;;;;12.59;100.00;97945.00;15283948;19;20847;-55
2022/05/29 10:24:54;;;;;;;2.13;0.60;;;;;;;12.58;100.00;97948.72;15276482;19;20031;-55
2022/05/29 10:30:02;;;;;;;2.22;0.80;;;;;;;12.84;100.00;97951.97;15281415;19;20006;-55
2022/05/29 10:35:23;;;;;;;2.15;0.75;;;;;;;12.92;100.00;97944.63;15282049;19;20032;-58
2022/05/29 10:40:32;;;;;;;1.40;0.60;;;;;;;12.97;100.00;97943.22;15283950;19;20568;-54
2022/05/29 10:45:44;;;;;;;1.73;0.68;;;;;;;13.17;100.00;97936.19;15280509;19;20014;-55
2022/05/29 10:51:09;;;;;;;1.75;0.63;;;;;;;13.39;100.00;97930.81;15291613;19;20042;-54
2022/05/29 10:56:28;;;;;;;1.15;0.50;;;;;;;13.67;100.00;97925.50;15312173;19;20021;-55
2022/05/29 11:07:22;;;;;;;;;;;;;;;13.62;90.83;97909.03;15317171;19;20019;-55
2022/05/29 11:12:32;;;;;;;;;;;;;;;14.12;88.81;97909.03;15314652;19;20277;-52
2022/05/29 11:17:52;;;;;;;1.50;0.60;;;;;;;14.25;96.60;97893.91;15315773;19;19949;-51
2022/05/29 11:23:17;;;;;;;1.98;0.60;;;;;;;14.37;99.38;97894.16;15321798;19;20006;-55
2022/05/29 11:28:47;;;;;;;1.08;0.60;;;;;;;14.41;97.57;97895.47;15369565;19;20043;-57
2022/05/29 11:34:15;;;;;;;1.20;0.50;;;;;;;14.06;91.00;97888.13;15359994;19;20178;-57
2022/05/29 11:39:37;;;;;;;1.40;0.57;;;;;;;14.03;100.00;97894.78;15333982;19;20459;-58
2022/05/29 11:44:51;;;;;;;0.93;0.50;;;;;;;14.04;100.00;97882.09;15338458;19;20014;-59
2022/05/29 11:55:41;;;;;;;1.27;0.40;;;;;;;14.16;81.30;97877.81;15350549;19;20018;-57
2022/05/29 12:00:57;;;;;;;0.95;0.40;;;;;;;14.07;77.79;97867.31;15353039;19;20048;-58
2022/05/29 12:06:09;;;;;;;1.52;0.60;;;;;;;14.47;78.37;97868.41;15337236;19;20131;-58
2022/05/29 12:11:34;;;;;;;0.55;0.30;;;;;;;14.73;77.42;97864.19;15318722;19;20049;-57
2022/05/29 12:16:43;;;;;;;1.60;0.60;;;;;;;14.99;81.71;97859.91;15318054;19;20050;-58
2022/05/29 12:21:58;;;;;;;0.80;0.50;;;;;;;14.89;84.40;97854.00;15321696;19;20014;-58
2022/05/29 12:27:12;;;;;;;1.17;0.50;;;;;;;14.45;84.41;97848.78;15320090;19;20021;-58
2022/05/29 12:32:23;;;;;;;1.25;1.00;;;;;;;14.96;88.93;97846.75;15325600;19;20375;-59
2022/05/29 12:37:46;;;;;;;2.00;0.50;;;;;;;14.15;86.96;97846.34;15320613;19;20011;-59
2022/05/29 12:43:22;;;;;;;0.75;0.43;;;;;;;14.21;89.86;97841.13;15277366;19;20779;-55
2022/05/29 12:49:00;;;;;;;1.27;0.60;;;;;;;14.38;87.32;97845.22;15272449;19;20015;-58
2022/05/29 12:54:31;;;;;;;3.65;0.60;;;;;;;14.39;92.76;97848.75;15278208;19;20356;-57
2022/05/29 13:00:06;;;;;;;1.47;0.50;;;;;;;14.67;84.57;97840.56;15279770;19;20010;-56
2022/05/29 13:05:33;;;;;;;1.10;0.40;;;;;;;14.77;68.65;97845.63;15282944;19;20042;-57
2022/05/29 13:10:42;;;;;;;0.70;0.32;;;;;;;15.07;67.84;97835.28;15261183;19;20280;-58
2022/05/29 13:15:51;;;;;;;1.48;0.60;;;;;;;15.37;64.09;97821.34;15281218;19;20019;-55
2022/05/29 13:21:23;;;;;;;0.70;0.50;;;;;;;15.64;62.36;97821.38;15283677;19;21064;-55
2022/05/29 13:26:32;;;;;;;1.30;0.50;;;;;;;15.41;63.63;97819.06;15278082;19;20010;-57
2022/05/29 13:32:14;;;;;;;1.33;0.50;;;;;;;15.16;65.41;97818.81;15283476;19;20011;-55
2022/05/29 13:37:40;;;;;;;1.27;0.60;;;;;;;15.40;70.55;97810.09;15281989;19;20212;-59
2022/05/29 13:42:48;;;;;;;2.10;0.52;;;;;;;15.79;67.45;97813.00;15278520;19;20014;-57
2022/05/29 13:48:17;;;;;;;1.35;0.60;;;;;;;15.18;69.57;97809.41;15276678;19;20010;-58
2022/05/29 13:53:36;;;;;;;1.52;0.50;;;;;;;15.72;69.50;97807.56;15279944;19;20480;-56
2022/05/29 14:04:08;;;;;;;1.30;0.52;;;;;;;16.97;61.07;97791.38;15278933;19;20031;-57
2022/05/29 14:09:41;;;;;;;1.17;0.38;;;;;;;17.34;57.96;97791.56;15274009;19;20024;-56
2022/05/29 14:14:52;;;;;;;1.38;0.63;;;;;;;17.65;56.30;97783.56;15277972;19;20019;-57
2022/05/29 14:20:33;;;;;;;0.95;0.47;;;;;;;17.72;54.29;97776.16;15280872;19;20387;-57
2022/05/29 14:25:46;;;;;;;;;;;;;;;17.97;55.01;97770.72;15275298;19;20018;-54
2022/05/29 14:31:11;;;;;;;1.02;0.50;;;;;;;18.29;53.53;97772.47;15279648;19;19919;-58
2022/05/29 14:36:32;;;;;;;1.25;0.60;;;;;;;16.52;54.44;97775.03;15275994;19;20018;-56
2022/05/29 14:41:43;;;;;;;1.75;0.60;;;;;;;17.03;57.93;97760.56;15274398;19;20074;-56
2022/05/29 14:52:22;;;;;;;0.98;0.50;;;;;;;16.84;53.91;97754.16;15274769;19;20010;-57
2022/05/29 14:57:31;;;;;;;0.70;0.50;;;;;;;16.22;59.53;97760.09;15273513;19;20029;-57
2022/05/29 15:02:39;;;;;;;0.95;0.50;;;;;;;16.98;59.31;97757.66;15273366;19;20011;-60
2022/05/29 15:13:14;;;;;;;1.75;0.63;;;;;;;16.91;62.59;97745.97;15269516;19;20043;-55
2022/05/29 15:18:23;;;;;;;1.20;0.50;;;;;;;15.94;64.72;97747.63;15269558;19;20023;-52
2022/05/29 15:28:52;;;;;;;1.80;0.60;;;;;;;17.36;57.06;97731.41;15266365;19;20018;-56
2022/05/29 15:34:24;;;;;;;1.25;0.52;;;;;;;17.81;56.70;97733.97;15264617;19;20015;-56
2022/05/29 15:39:35;;;;;;;;;;;;;;;17.04;59.26;97736.91;15280371;19;20023;-56
2022/05/29 15:45:05;;;;;;;1.17;0.60;;;;;;;17.08;57.22;97735.41;15284963;19;19927;-55
2022/05/29 15:50:31;;;;;;;0.87;0.60;;;;;;;17.04;58.60;97726.88;15282115;19;20455;-52
2022/05/29 15:55:44;;;;;;;0.70;0.40;;;;;;;17.25;60.17;97738.44;15285337;19;20022;-56
2022/05/29 16:01:07;;;;;;;2.78;0.50;;;;;;;17.72;57.18;97729.84;15288185;19;20010;-51
2022/05/29 16:06:19;;;;;;;0.77;0.45;;;;;;;17.80;54.88;97729.56;15280475;19;20015;-57
2022/05/29 16:11:37;;;;;;;1.27;0.60;;;;;;;17.69;56.45;97727.59;15285459;19;20458;-57
2022/05/29 16:16:46;;;;;;;1.02;0.30;;;;;;;16.27;60.93;97724.09;15264472;19;20031;-56
2022/05/29 16:22:11;;;;;;;1.10;0.50;;;;;;;16.40;57.89;97713.19;15283802;19;20010;-55
2022/05/29 16:27:30;;;;;;;1.77;0.60;;;;;;;16.37;56.35;97704.63;15281997;19;20014;-60
2022/05/29 16:32:42;;;;;;;1.02;0.40;;;;;;;16.60;57.30;97707.66;15278826;19;20010;-57
2022/05/29 16:48:46;;;;;;;0.63;0.40;;;;;;;17.25;54.07;97725.66;15276383;19;20015;-54
2022/05/29 16:53:54;;;;;;;0.47;0.30;;;;;;;17.28;55.89;97729.84;15279139;19;20023;-54
2022/05/29 16:59:11;;;;;;;1.63;0.50;;;;;;;17.23;56.08;97724.22;15277824;19;20014;-55
2022/05/29 17:04:30;;;;;;;0.35;0.30;;;;;;;16.37;59.63;97729.09;15277223;19;20365;-56
2022/05/29 17:09:48;;;;;;;1.15;0.35;;;;;;;16.27;58.91;97727.69;15279745;19;20747;-54
2022/05/29 17:15:02;;;;;;;0.82;0.40;;;;;;;16.08;57.85;97728.56;15278524;19;20019;-55
2022/05/29 17:20:10;;;;;;;0.40;0.30;;;;;;;16.31;57.59;97728.06;15279295;19;20014;-54
2022/05/29 17:25:21;;;;;;;0.77;0.40;;;;;;;16.71;58.80;97727.03;15279988;19;20071;-59
2022/05/29 17:30:36;;;;;;;0.82;0.30;;;;;;;16.40;57.78;97726.78;15283536;19;20478;-57
2022/05/29 17:35:45;;;;;;;1.30;0.45;;;;;;;16.20;59.06;97735.00;15279057;19;20018;-58
2022/05/29 17:41:00;;;;;;;1.08;0.55;;;;;;;16.30;62.09;97738.09;15282305;19;20086;-58
2022/05/29 17:46:14;;;;;;;0.52;0.30;;;;;;;16.88;61.01;97752.66;15275786;19;20478;-52
2022/05/29 17:51:26;;;;;;;0.68;0.43;;;;;;;17.24;59.62;97767.53;15278296;19;20010;-57
2022/05/29 17:56:32;;;;;;;0.30;0.30;;;;;;;17.23;56.75;97774.03;15278986;19;20027;-58
2022/05/29 18:01:42;;;;;;;0.50;0.32;;;;;;;16.98;57.46;97781.34;15278726;19;20650;-56
2022/05/29 18:06:47;;;;;;;1.15;0.45;;;;;;;16.91;60.03;97774.00;15277425;19;20018;-56
2022/05/29 18:11:55;;;;;;;0.38;0.30;;;;;;;16.41;60.53;97779.25;15278118;19;20753;-57
2022/05/29 18:17:03;;;;;;;3.22;0.40;;;;;;;16.15;61.84;97776.41;15276295;19;20374;-63
2022/05/29 18:22:08;;;;;;;0.68;0.30;;;;;;;15.74;63.09;97773.94;15277381;19;20123;-63
2022/05/29 18:27:15;;;;;;;0.45;0.28;;;;;;;15.43;64.85;97778.97;15276777;19;20015;-60
2022/05/29 18:32:23;;;;;;;0.40;0.30;;;;;;;15.06;66.09;97771.22;15278020;19;20471;-57
2022/05/29 18:37:30;;;;;;;0.65;0.40;;;;;;;14.79;68.38;97776.59;15265820;19;20500;-58
2022/05/29 18:42:35;;;;;;;0.30;0.20;;;;;;;14.69;72.04;97784.28;15271367;19;20038;-58
2022/05/29 18:47:43;;;;;;;0.98;0.60;;;;;;;14.40;75.86;97782.66;15270680;19;20502;-58
2022/05/29 18:52:48;;;;;;;0.77;0.60;;;;;;;14.13;82.60;97793.38;15273044;19;20018;-54
2022/05/29 18:57:53;;;;;;;0.50;0.30;;;;;;;13.77;90.55;97783.56;15271825;19;20116;-58
2022/05/29 19:08:44;;;;;;;0.93;0.60;;;;;;;13.38;100.00;97796.56;15259896;19;20010;-58
2022/05/29 19:13:50;;;;;;;0.70;0.50;;;;;;;13.10;100.00;97802.78;15277691;19;20015;-53
2022/05/29 19:18:57;;;;;;;0.43;0.43;;;;;;;12.91;100.00;97799.66;15280409;19;20498;-56
2022/05/29 19:24:05;;;;;;;1.08;0.50;;;;;;;12.72;100.00;97811.09;15285912;19;20035;-56
2022/05/29 19:29:12;;;;;;;0.77;0.40;;;;;;;12.42;100.00;97816.53;15282251;19;20010;-53
2022/05/29 19:34:18;;;;;;;0.75;0.40;;;;;;;12.39;100.00;97814.22;15284051;19;20030;-55
2022/05/29 19:39:26;;;;;;;0.70;0.40;;;;;;;12.25;100.00;97827.53;15282094;19;20014;-52
2022/05/29 19:44:33;;;;;;;2.25;0.47;;;;;;;12.09;100.00;97823.19;15283942;19;20033;-52
2022/05/29 19:49:38;;;;;;;0.98;0.52;;;;;;;11.99;100.00;97814.50;15280451;19;20010;-52
2022/05/29 19:54:47;;;;;;;0.45;0.40;;;;;;;11.85;100.00;97816.97;15281416;19;20038;-55
2022/05/29 19:59:52;;;;;;;1.02;0.40;;;;;;;11.85;100.00;97813.44;15280499;19;20379;-52
2022/05/29 20:04:58;;;;;;;0.85;0.50;;;;;;;11.79;100.00;97820.41;15283251;19;20014;-56
2022/05/29 20:10:08;;;;;;;1.00;0.60;;;;;;;11.73;100.00;97818.44;15281920;19;20031;-56
2022/05/29 20:15:14;;;;;;;1.77;0.60;;;;;;;11.67;100.00;97813.78;15286872;19;20028;-56
2022/05/29 20:20:19;;;;;;;1.67;0.60;;;;;;;11.63;100.00;97817.88;15282891;19;20758;-51
2022/05/29 20:25:27;;;;;;;0.95;0.50;;;;;;;11.63;100.00;97815.19;15282825;19;20361;-56
2022/05/29 20:30:32;;;;;;;1.40;0.60;;;;;;;11.49;100.00;97822.19;15287609;19;20015;-58
2022/05/29 20:35:37;;;;;;;1.55;0.70;;;;;;;11.45;100.00;97826.31;15284329;19;20027;-52
2022/05/29 20:40:45;;;;;;;2.00;0.77;;;;;;;11.44;100.00;97824.63;15286498;19;20018;-59
2022/05/29 20:47:23;;;;;;;1.73;0.47;;;;;;;11.37;100.00;97825.31;15282565;19;20363;-52
2022/05/29 20:51:15;;;;;;;0.80;0.50;;;;;;;11.27;100.00;97826.63;15281231;19;20367;-51
2022/05/29 20:56:24;;;;;;;1.42;0.68;;;;;;;11.25;100.00;97833.03;15280303;19;20022;-53
2022/05/29 21:01:31;;;;;;;0.80;0.60;;;;;;;11.10;100.00;97830.28;15282925;19;20035;-51
2022/05/29 21:06:38;;;;;;;1.13;0.60;;;;;;;10.99;100.00;97830.69;15282566;19;20025;-55
2022/05/29 21:12:09;;;;;;;1.63;0.60;;;;;;;10.98;100.00;97826.31;15279561;19;20815;-53
2022/05/29 21:17:17;;;;;;;0.85;0.60;;;;;;;10.95;100.00;97826.66;15282259;19;20487;-56
2022/05/29 21:22:23;;;;;;;0.98;0.57;;;;;;;10.88;100.00;97820.28;15278925;19;20526;-60
2022/05/29 21:27:28;;;;;;;1.98;0.60;;;;;;;10.80;100.00;97837.38;15280919;19;20027;-55
2022/05/29 21:32:38;;;;;;;1.27;0.52;;;;;;;10.71;100.00;97833.03;15282070;19;20014;-59
2022/05/29 21:37:55;;;;;;;1.55;0.63;;;;;;;10.69;100.00;97835.91;15280294;19;20020;-57
2022/05/29 21:43:00;;;;;;;1.08;0.52;;;;;;;10.61;100.00;97841.34;15278418;19;20019;-56
2022/05/29 21:48:09;;;;;;;0.77;0.43;;;;;;;10.57;100.00;97840.00;15278635;19;20006;-55
2022/05/29 21:53:14;;;;;;;0.98;0.70;;;;;;;10.54;100.00;97843.03;15277539;19;20017;-59
2022/05/29 21:58:19;;;;;;;0.77;0.57;;;;;;;10.47;100.00;97845.59;15279714;19;20014;-55
2022/05/29 22:03:28;;;;;;;0.90;0.55;;;;;;;10.45;100.00;97837.69;15275971;19;20018;-58
2022/05/29 22:08:35;;;;;;;1.15;0.68;;;;;;;10.39;100.00;97843.78;15275488;19;20354;-61
2022/05/29 22:13:41;;;;;;;0.82;0.60;;;;;;;10.34;100.00;97832.66;15276565;19;20014;-53
2022/05/29 22:18:49;;;;;;;2.08;0.80;;;;;;;10.24;100.00;97827.47;15275695;19;20022;-52
2022/05/29 22:23:57;;;;;;;0.55;0.50;;;;;;;10.18;100.00;97839.78;15275459;19;20014;-60
2022/05/29 22:29:02;;;;;;;1.17;0.60;;;;;;;10.20;100.00;97826.16;15275847;19;20034;-53
2022/05/29 22:34:18;;;;;;;1.77;0.60;;;;;;;10.15;100.00;97826.69;15275915;19;20025;-56
2022/05/29 22:39:24;;;;;;;1.92;0.70;;;;;;;10.10;100.00;97831.72;15275797;19;20023;-51
2022/05/29 22:44:30;;;;;;;1.33;0.60;;;;;;;10.04;100.00;97829.75;15278007;19;20014;-56
2022/05/29 22:49:44;;;;;;;1.13;0.73;;;;;;;9.87;100.00;97840.53;15273394;19;20736;-61
2022/05/29 22:54:56;;;;;;;1.77;0.65;;;;;;;9.79;100.00;97831.63;15277313;19;20037;-54
2022/05/29 23:00:02;;;;;;;2.72;1.00;;;;;;;9.74;100.00;97829.47;15277364;19;20006;-55
2022/05/29 23:05:13;;;;;;;1.05;0.73;;;;;;;9.64;100.00;97832.31;15274088;19;20021;-55
2022/05/29 23:10:18;;;;;;;0.85;0.70;;;;;;;9.59;100.00;97825.78;15272865;19;20029;-56
2022/05/29 23:15:23;;;;;;;1.20;0.80;;;;;;;9.49;100.00;97837.56;15274582;19;20027;-52
2022/05/29 23:20:31;;;;;;;1.35;0.68;;;;;;;9.42;100.00;97825.81;15276829;19;20019;-59
2022/05/29 23:25:38;;;;;;;1.65;0.85;;;;;;;9.32;100.00;97819.75;15275159;19;20357;-60
2022/05/29 23:30:47;;;;;;;2.67;1.00;;;;;;;9.10;100.00;97822.94;15272649;19;20078;-52
2022/05/29 23:35:55;;;;;;;1.65;0.75;;;;;;;9.02;100.00;97824.75;15274878;19;20010;-53
2022/05/29 23:42:22;;;;;;;2.00;0.90;;;;;;;8.94;100.00;97829.13;15018973;19;5001551;-51
2022/05/29 23:46:27;;;;;;;0.73;0.70;;;;;;;8.82;100.00;97835.00;15273333;19;20022;-54
2022/05/29 23:51:34;;;;;;;2.50;0.80;;;;;;;8.74;100.00;97825.91;15273384;19;20368;-52
2022/05/29 23:56:39;;;;;;;2.15;0.80;;;;;;;8.68;100.00;97815.81;15272077;19;20041;-58
